Pagina principale
METAR-TAF:

METAR-TAF

Aeroporti :

Suceava, Romania

latitudine: 47-39N, longitudine: 026-15E, altezza: 351 m

Osservazione

Il bollettino è stato emesso 15 minuti fa, alle 07:00 UTC
Vento 9 kt da ovest/sud-ovest
Temperature 15°C
Umidità 59%
Pressione 1023 hPa
Visibilità 10 km o più
nessuna nube inferiore a 1500 m e nessun cumulonembo

METAR: LRSV 270700Z 24009KT CAVOK 15/07 Q1023

Ora: 10:15 (07:15 UTC)

Previsione

Il bollettino è stato emesso 2 ore e 15 minuti fa, alle 05:00 UTC
Previsione valida dal 27 alle 06 UTC al 27 alle 15 UTC
Vento 7 kt da sud/sud-est
Visibilità 10 km o più
nessuna nube inferiore a 1500 m e nessun cumulonembo

TAF: LRSV 270500Z 2706/2715 16007KT CAVOK

Osservazioni e previsioni meteorologiche di più di 4000 aeroporti (messaggi METAR e TAF).

Le stazioni disponibili sono rappresentate dai dischi gialli e rossi sulla carta.

Puntare il mouse per vedere il nome della stazione.

Clicca sopra per visualizzare le osservazioni e previsioni meteorologiche.

Per cambiare la mappa : fare clic sui pulsanti verdi con una croce nera per ingrandire, il pulsante verde con un trattino per diminuire, o sulla freccia verde per le mappe adiacenti.


METAR-TAF: